sensor_id;sensor_type;location;lat;lon;timestamp;P1;durP1;ratioP1;P2;durP2;ratioP2
58091;SDS011;43896;48.178;11.578;2022-08-21T00:02:24;2.38;;;1.30;;
58091;SDS011;43896;48.178;11.578;2022-08-21T00:05:04;2.33;;;1.30;;
58091;SDS011;43896;48.178;11.578;2022-08-21T00:08:01;2.92;;;1.55;;
58091;SDS011;43896;48.178;11.578;2022-08-21T00:10:55;2.38;;;1.02;;
58091;SDS011;43896;48.178;11.578;2022-08-21T00:17:14;2.40;;;1.30;;
58091;SDS011;43896;48.178;11.578;2022-08-21T00:20:32;2.03;;;1.10;;
58091;SDS011;43896;48.178;11.578;2022-08-21T00:23:32;4.43;;;1.48;;
58091;SDS011;43896;48.178;11.578;2022-08-21T00:26:21;2.25;;;1.20;;
58091;SDS011;43896;48.178;11.578;2022-08-21T00:28:57;2.50;;;1.30;;
58091;SDS011;43896;48.178;11.578;2022-08-21T00:31:37;2.63;;;1.20;;
58091;SDS011;43896;48.178;11.578;2022-08-21T00:34:16;2.17;;;1.20;;
58091;SDS011;43896;48.178;11.578;2022-08-21T00:36:49;2.50;;;1.13;;
58091;SDS011;43896;48.178;11.578;2022-08-21T00:42:31;3.92;;;1.23;;
58091;SDS011;43896;48.178;11.578;2022-08-21T00:45:26;3.13;;;1.30;;
58091;SDS011;43896;48.178;11.578;2022-08-21T00:48:15;3.78;;;1.30;;
58091;SDS011;43896;48.178;11.578;2022-08-21T00:51:11;2.22;;;1.20;;
58091;SDS011;43896;48.178;11.578;2022-08-21T00:54:06;2.10;;;1.10;;
58091;SDS011;43896;48.178;11.578;2022-08-21T00:56:40;2.35;;;1.25;;
58091;SDS011;43896;48.178;11.578;2022-08-21T00:59:55;3.10;;;1.20;;
58091;SDS011;43896;48.178;11.578;2022-08-21T01:02:50;2.60;;;1.20;;
58091;SDS011;43896;48.178;11.578;2022-08-21T01:08:02;2.20;;;1.05;;
58091;SDS011;43896;48.178;11.578;2022-08-21T01:10:55;2.83;;;1.00;;
58091;SDS011;43896;48.178;11.578;2022-08-21T01:16:23;1.63;;;1.00;;
58091;SDS011;43896;48.178;11.578;2022-08-21T01:21:51;3.38;;;1.10;;
58091;SDS011;43896;48.178;11.578;2022-08-21T01:24:48;2.58;;;1.10;;
58091;SDS011;43896;48.178;11.578;2022-08-21T01:27:30;2.97;;;1.30;;
58091;SDS011;43896;48.178;11.578;2022-08-21T01:30:26;3.50;;;1.10;;
58091;SDS011;43896;48.178;11.578;2022-08-21T01:33:17;2.20;;;1.13;;
58091;SDS011;43896;48.178;11.578;2022-08-21T01:36:07;2.95;;;1.08;;
58091;SDS011;43896;48.178;11.578;2022-08-21T01:38:59;2.45;;;1.20;;
58091;SDS011;43896;48.178;11.578;2022-08-21T01:42:03;1.92;;;1.02;;
58091;SDS011;43896;48.178;11.578;2022-08-21T01:44:32;2.15;;;1.10;;
58091;SDS011;43896;48.178;11.578;2022-08-21T01:47:12;2.05;;;1.00;;
58091;SDS011;43896;48.178;11.578;2022-08-21T01:49:52;1.63;;;0.90;;
58091;SDS011;43896;48.178;11.578;2022-08-21T01:55:22;2.10;;;1.10;;
58091;SDS011;43896;48.178;11.578;2022-08-21T01:57:56;2.65;;;1.10;;
58091;SDS011;43896;48.178;11.578;2022-08-21T02:00:31;2.38;;;1.15;;
58091;SDS011;43896;48.178;11.578;2022-08-21T02:03:02;2.08;;;1.00;;
58091;SDS011;43896;48.178;11.578;2022-08-21T02:05:33;2.20;;;1.17;;
58091;SDS011;43896;48.178;11.578;2022-08-21T02:08:11;2.00;;;1.20;;
58091;SDS011;43896;48.178;11.578;2022-08-21T02:10:57;2.60;;;1.00;;
58091;SDS011;43896;48.178;11.578;2022-08-21T02:13:33;1.85;;;0.95;;
58091;SDS011;43896;48.178;11.578;2022-08-21T02:16:13;2.33;;;1.10;;
58091;SDS011;43896;48.178;11.578;2022-08-21T02:18:39;2.25;;;1.15;;
58091;SDS011;43896;48.178;11.578;2022-08-21T02:21:18;2.95;;;1.10;;
58091;SDS011;43896;48.178;11.578;2022-08-21T02:23:49;2.10;;;1.10;;
58091;SDS011;43896;48.178;11.578;2022-08-21T02:26:20;2.28;;;1.15;;
58091;SDS011;43896;48.178;11.578;2022-08-21T02:29:16;1.98;;;1.10;;
58091;SDS011;43896;48.178;11.578;2022-08-21T02:32:30;3.45;;;1.05;;
58091;SDS011;43896;48.178;11.578;2022-08-21T02:35:09;2.35;;;1.13;;
58091;SDS011;43896;48.178;11.578;2022-08-21T02:38:00;4.65;;;1.30;;
58091;SDS011;43896;48.178;11.578;2022-08-21T02:40:40;3.53;;;1.10;;
58091;SDS011;43896;48.178;11.578;2022-08-21T02:43:17;2.35;;;1.20;;
58091;SDS011;43896;48.178;11.578;2022-08-21T02:45:46;3.72;;;1.40;;
58091;SDS011;43896;48.178;11.578;2022-08-21T02:48:38;3.97;;;1.23;;
58091;SDS011;43896;48.178;11.578;2022-08-21T02:51:13;3.25;;;1.25;;
58091;SDS011;43896;48.178;11.578;2022-08-21T02:54:04;2.33;;;1.20;;
58091;SDS011;43896;48.178;11.578;2022-08-21T02:56:40;2.50;;;1.17;;
58091;SDS011;43896;48.178;11.578;2022-08-21T02:59:42;2.50;;;1.13;;
58091;SDS011;43896;48.178;11.578;2022-08-21T03:02:16;1.85;;;1.10;;
58091;SDS011;43896;48.178;11.578;2022-08-21T03:04:55;2.17;;;1.20;;
58091;SDS011;43896;48.178;11.578;2022-08-21T03:07:35;2.15;;;1.00;;
58091;SDS011;43896;48.178;11.578;2022-08-21T03:10:09;2.58;;;1.00;;
58091;SDS011;43896;48.178;11.578;2022-08-21T03:12:43;2.13;;;1.00;;
58091;SDS011;43896;48.178;11.578;2022-08-21T03:21:06;2.42;;;1.20;;
58091;SDS011;43896;48.178;11.578;2022-08-21T03:23:39;1.98;;;1.00;;
58091;SDS011;43896;48.178;11.578;2022-08-21T03:26:36;2.33;;;1.17;;
58091;SDS011;43896;48.178;11.578;2022-08-21T03:29:22;1.65;;;1.00;;
58091;SDS011;43896;48.178;11.578;2022-08-21T03:31:50;2.17;;;1.15;;
58091;SDS011;43896;48.178;11.578;2022-08-21T03:37:36;2.35;;;1.10;;
58091;SDS011;43896;48.178;11.578;2022-08-21T03:40:10;2.17;;;1.20;;
58091;SDS011;43896;48.178;11.578;2022-08-21T03:42:52;2.58;;;1.23;;
58091;SDS011;43896;48.178;11.578;2022-08-21T03:45:20;2.10;;;1.10;;
58091;SDS011;43896;48.178;11.578;2022-08-21T03:48:00;5.15;;;1.35;;
58091;SDS011;43896;48.178;11.578;2022-08-21T03:50:39;2.50;;;1.20;;
58091;SDS011;43896;48.178;11.578;2022-08-21T03:53:16;2.85;;;1.20;;
58091;SDS011;43896;48.178;11.578;2022-08-21T03:58:57;3.05;;;1.23;;
58091;SDS011;43896;48.178;11.578;2022-08-21T04:01:36;2.72;;;1.30;;
58091;SDS011;43896;48.178;11.578;2022-08-21T04:04:06;2.78;;;1.17;;
58091;SDS011;43896;48.178;11.578;2022-08-21T04:06:41;4.05;;;1.20;;
58091;SDS011;43896;48.178;11.578;2022-08-21T04:09:16;3.53;;;1.30;;
58091;SDS011;43896;48.178;11.578;2022-08-21T04:11:48;3.03;;;1.20;;
58091;SDS011;43896;48.178;11.578;2022-08-21T04:14:33;2.17;;;1.17;;
58091;SDS011;43896;48.178;11.578;2022-08-21T04:17:23;2.95;;;1.20;;
58091;SDS011;43896;48.178;11.578;2022-08-21T04:19:51;2.17;;;1.20;;
58091;SDS011;43896;48.178;11.578;2022-08-21T04:25:24;3.85;;;1.40;;
58091;SDS011;43896;48.178;11.578;2022-08-21T04:28:00;6.15;;;1.30;;
58091;SDS011;43896;48.178;11.578;2022-08-21T04:30:34;4.00;;;1.40;;
58091;SDS011;43896;48.178;11.578;2022-08-21T04:33:10;2.58;;;1.17;;
58091;SDS011;43896;48.178;11.578;2022-08-21T04:35:51;3.20;;;1.20;;
58091;SDS011;43896;48.178;11.578;2022-08-21T04:38:40;2.83;;;1.20;;
58091;SDS011;43896;48.178;11.578;2022-08-21T04:44:11;2.63;;;1.40;;
58091;SDS011;43896;48.178;11.578;2022-08-21T04:49:53;3.30;;;1.20;;
58091;SDS011;43896;48.178;11.578;2022-08-21T04:52:26;3.53;;;1.48;;
58091;SDS011;43896;48.178;11.578;2022-08-21T04:55:25;2.28;;;1.20;;
58091;SDS011;43896;48.178;11.578;2022-08-21T04:58:09;2.20;;;1.20;;
58091;SDS011;43896;48.178;11.578;2022-08-21T05:00:51;2.25;;;1.20;;
58091;SDS011;43896;48.178;11.578;2022-08-21T05:03:23;2.17;;;1.30;;
58091;SDS011;43896;48.178;11.578;2022-08-21T05:05:49;3.05;;;1.50;;
58091;SDS011;43896;48.178;11.578;2022-08-21T05:08:20;2.15;;;1.33;;
58091;SDS011;43896;48.178;11.578;2022-08-21T05:11:04;2.58;;;1.40;;
58091;SDS011;43896;48.178;11.578;2022-08-21T05:13:49;2.80;;;1.48;;
58091;SDS011;43896;48.178;11.578;2022-08-21T05:19:16;2.90;;;1.40;;
58091;SDS011;43896;48.178;11.578;2022-08-21T05:21:46;2.90;;;1.40;;
58091;SDS011;43896;48.178;11.578;2022-08-21T05:24:23;3.13;;;1.38;;
58091;SDS011;43896;48.178;11.578;2022-08-21T05:27:01;4.03;;;1.30;;
58091;SDS011;43896;48.178;11.578;2022-08-21T05:29:29;3.28;;;1.30;;
58091;SDS011;43896;48.178;11.578;2022-08-21T05:31:57;1.80;;;1.15;;
58091;SDS011;43896;48.178;11.578;2022-08-21T05:34:23;4.18;;;1.52;;
58091;SDS011;43896;48.178;11.578;2022-08-21T05:36:48;3.25;;;1.42;;
58091;SDS011;43896;48.178;11.578;2022-08-21T05:39:14;3.53;;;1.50;;
58091;SDS011;43896;48.178;11.578;2022-08-21T05:41:39;2.80;;;1.40;;
58091;SDS011;43896;48.178;11.578;2022-08-21T05:44:05;3.28;;;1.40;;
58091;SDS011;43896;48.178;11.578;2022-08-21T05:46:30;2.45;;;1.20;;
58091;SDS011;43896;48.178;11.578;2022-08-21T05:48:55;3.20;;;1.50;;
58091;SDS011;43896;48.178;11.578;2022-08-21T05:51:21;2.72;;;1.40;;
58091;SDS011;43896;48.178;11.578;2022-08-21T05:53:46;2.72;;;1.25;;
58091;SDS011;43896;48.178;11.578;2022-08-21T05:56:12;2.97;;;1.60;;
58091;SDS011;43896;48.178;11.578;2022-08-21T05:58:39;2.83;;;1.20;;
58091;SDS011;43896;48.178;11.578;2022-08-21T06:01:04;2.67;;;1.20;;
58091;SDS011;43896;48.178;11.578;2022-08-21T06:03:34;3.00;;;1.38;;
58091;SDS011;43896;48.178;11.578;2022-08-21T06:06:01;2.95;;;1.40;;
58091;SDS011;43896;48.178;11.578;2022-08-21T06:08:27;2.20;;;1.00;;
58091;SDS011;43896;48.178;11.578;2022-08-21T06:10:54;2.63;;;1.30;;
58091;SDS011;43896;48.178;11.578;2022-08-21T06:13:22;2.50;;;1.20;;
58091;SDS011;43896;48.178;11.578;2022-08-21T06:15:48;2.40;;;1.20;;
58091;SDS011;43896;48.178;11.578;2022-08-21T06:18:14;3.00;;;1.30;;
58091;SDS011;43896;48.178;11.578;2022-08-21T06:20:40;1.70;;;1.10;;
58091;SDS011;43896;48.178;11.578;2022-08-21T06:23:06;3.25;;;1.50;;
58091;SDS011;43896;48.178;11.578;2022-08-21T06:25:32;3.47;;;1.33;;
58091;SDS011;43896;48.178;11.578;2022-08-21T06:28:07;3.33;;;1.40;;
58091;SDS011;43896;48.178;11.578;2022-08-21T06:30:34;3.15;;;1.40;;
58091;SDS011;43896;48.178;11.578;2022-08-21T06:33:01;4.60;;;1.55;;
58091;SDS011;43896;48.178;11.578;2022-08-21T06:35:27;3.40;;;1.50;;
58091;SDS011;43896;48.178;11.578;2022-08-21T06:37:54;3.58;;;1.50;;
58091;SDS011;43896;48.178;11.578;2022-08-21T06:40:19;6.20;;;1.60;;
58091;SDS011;43896;48.178;11.578;2022-08-21T06:42:45;2.97;;;1.33;;
58091;SDS011;43896;48.178;11.578;2022-08-21T06:45:10;4.47;;;1.45;;
58091;SDS011;43896;48.178;11.578;2022-08-21T06:47:36;3.40;;;1.50;;
58091;SDS011;43896;48.178;11.578;2022-08-21T06:50:02;3.13;;;1.60;;
58091;SDS011;43896;48.178;11.578;2022-08-21T06:52:28;3.20;;;1.60;;
58091;SDS011;43896;48.178;11.578;2022-08-21T06:54:54;3.15;;;1.67;;
58091;SDS011;43896;48.178;11.578;2022-08-21T06:57:19;3.38;;;1.42;;
58091;SDS011;43896;48.178;11.578;2022-08-21T06:59:44;3.33;;;1.70;;
58091;SDS011;43896;48.178;11.578;2022-08-21T07:02:09;6.68;;;2.00;;
58091;SDS011;43896;48.178;11.578;2022-08-21T07:04:35;3.97;;;1.60;;
58091;SDS011;43896;48.178;11.578;2022-08-21T07:07:00;3.25;;;1.30;;
58091;SDS011;43896;48.178;11.578;2022-08-21T07:09:25;5.05;;;1.90;;
58091;SDS011;43896;48.178;11.578;2022-08-21T07:11:52;6.15;;;1.70;;
58091;SDS011;43896;48.178;11.578;2022-08-21T07:14:20;3.55;;;2.15;;
58091;SDS011;43896;48.178;11.578;2022-08-21T07:16:45;4.43;;;1.98;;
58091;SDS011;43896;48.178;11.578;2022-08-21T07:19:11;3.35;;;2.00;;
58091;SDS011;43896;48.178;11.578;2022-08-21T07:21:36;3.72;;;1.88;;
58091;SDS011;43896;48.178;11.578;2022-08-21T07:24:02;5.28;;;2.13;;
58091;SDS011;43896;48.178;11.578;2022-08-21T07:26:27;4.25;;;2.08;;
58091;SDS011;43896;48.178;11.578;2022-08-21T07:28:53;4.15;;;1.90;;
58091;SDS011;43896;48.178;11.578;2022-08-21T07:31:19;4.05;;;1.75;;
58091;SDS011;43896;48.178;11.578;2022-08-21T07:33:46;4.18;;;2.10;;
58091;SDS011;43896;48.178;11.578;2022-08-21T07:36:12;5.10;;;2.05;;
58091;SDS011;43896;48.178;11.578;2022-08-21T07:38:38;4.68;;;2.15;;
58091;SDS011;43896;48.178;11.578;2022-08-21T07:41:07;4.18;;;1.92;;
58091;SDS011;43896;48.178;11.578;2022-08-21T07:43:39;4.03;;;1.95;;
58091;SDS011;43896;48.178;11.578;2022-08-21T07:46:04;4.88;;;2.15;;
58091;SDS011;43896;48.178;11.578;2022-08-21T07:48:29;4.90;;;2.08;;
58091;SDS011;43896;48.178;11.578;2022-08-21T07:50:55;3.22;;;2.00;;
58091;SDS011;43896;48.178;11.578;2022-08-21T07:53:20;4.00;;;2.00;;
58091;SDS011;43896;48.178;11.578;2022-08-21T07:55:46;3.85;;;1.95;;
58091;SDS011;43896;48.178;11.578;2022-08-21T07:58:11;4.35;;;2.10;;
58091;SDS011;43896;48.178;11.578;2022-08-21T08:00:36;4.22;;;2.10;;
58091;SDS011;43896;48.178;11.578;2022-08-21T08:03:02;3.30;;;1.85;;
58091;SDS011;43896;48.178;11.578;2022-08-21T08:05:28;3.80;;;2.20;;
58091;SDS011;43896;48.178;11.578;2022-08-21T08:07:55;4.93;;;2.33;;
58091;SDS011;43896;48.178;11.578;2022-08-21T08:10:21;4.18;;;2.28;;
58091;SDS011;43896;48.178;11.578;2022-08-21T08:12:47;6.47;;;2.67;;
58091;SDS011;43896;48.178;11.578;2022-08-21T08:15:19;4.43;;;2.40;;
58091;SDS011;43896;48.178;11.578;2022-08-21T08:17:46;5.63;;;2.50;;
58091;SDS011;43896;48.178;11.578;2022-08-21T08:20:12;3.75;;;2.50;;
58091;SDS011;43896;48.178;11.578;2022-08-21T08:22:40;4.68;;;2.60;;
58091;SDS011;43896;48.178;11.578;2022-08-21T08:25:06;4.32;;;2.50;;
58091;SDS011;43896;48.178;11.578;2022-08-21T08:27:33;4.95;;;2.60;;
58091;SDS011;43896;48.178;11.578;2022-08-21T08:29:58;4.25;;;2.50;;
58091;SDS011;43896;48.178;11.578;2022-08-21T08:32:24;4.10;;;2.60;;
58091;SDS011;43896;48.178;11.578;2022-08-21T08:34:49;5.22;;;2.92;;
58091;SDS011;43896;48.178;11.578;2022-08-21T08:37:16;5.15;;;3.00;;
58091;SDS011;43896;48.178;11.578;2022-08-21T08:39:43;4.45;;;2.80;;
58091;SDS011;43896;48.178;11.578;2022-08-21T08:42:13;4.10;;;2.70;;
58091;SDS011;43896;48.178;11.578;2022-08-21T08:44:45;5.32;;;2.88;;
58091;SDS011;43896;48.178;11.578;2022-08-21T08:47:12;5.47;;;2.90;;
58091;SDS011;43896;48.178;11.578;2022-08-21T08:52:15;5.22;;;2.83;;
58091;SDS011;43896;48.178;11.578;2022-08-21T08:54:49;4.75;;;2.78;;
58091;SDS011;43896;48.178;11.578;2022-08-21T08:57:22;6.10;;;2.92;;
58091;SDS011;43896;48.178;11.578;2022-08-21T08:59:50;5.78;;;2.67;;
58091;SDS011;43896;48.178;11.578;2022-08-21T09:02:18;4.50;;;2.70;;
58091;SDS011;43896;48.178;11.578;2022-08-21T09:04:45;5.05;;;2.67;;
58091;SDS011;43896;48.178;11.578;2022-08-21T09:10:10;4.00;;;2.50;;
58091;SDS011;43896;48.178;11.578;2022-08-21T09:15:28;5.30;;;2.83;;
58091;SDS011;43896;48.178;11.578;2022-08-21T09:18:10;4.53;;;2.63;;
58091;SDS011;43896;48.178;11.578;2022-08-21T09:23:41;5.82;;;3.03;;
58091;SDS011;43896;48.178;11.578;2022-08-21T09:26:16;4.55;;;2.60;;
58091;SDS011;43896;48.178;11.578;2022-08-21T09:28:43;4.27;;;2.40;;
58091;SDS011;43896;48.178;11.578;2022-08-21T09:31:21;4.78;;;2.60;;
58091;SDS011;43896;48.178;11.578;2022-08-21T09:33:47;4.55;;;2.70;;
58091;SDS011;43896;48.178;11.578;2022-08-21T09:36:12;4.15;;;2.55;;
58091;SDS011;43896;48.178;11.578;2022-08-21T09:38:52;5.75;;;3.20;;
58091;SDS011;43896;48.178;11.578;2022-08-21T09:41:25;4.10;;;2.50;;
58091;SDS011;43896;48.178;11.578;2022-08-21T09:43:53;5.65;;;2.85;;
58091;SDS011;43896;48.178;11.578;2022-08-21T09:46:23;4.18;;;2.22;;
58091;SDS011;43896;48.178;11.578;2022-08-21T09:48:51;4.40;;;2.63;;
58091;SDS011;43896;48.178;11.578;2022-08-21T09:51:21;7.85;;;2.65;;
58091;SDS011;43896;48.178;11.578;2022-08-21T09:54:32;4.93;;;2.60;;
58091;SDS011;43896;48.178;11.578;2022-08-21T09:56:53;3.65;;;2.30;;
58091;SDS011;43896;48.178;11.578;2022-08-21T09:59:40;4.80;;;2.72;;
58091;SDS011;43896;48.178;11.578;2022-08-21T10:05:00;4.25;;;2.30;;
58091;SDS011;43896;48.178;11.578;2022-08-21T10:07:46;5.55;;;2.60;;
58091;SDS011;43896;48.178;11.578;2022-08-21T10:12:53;4.25;;;2.58;;
58091;SDS011;43896;48.178;11.578;2022-08-21T10:18:35;5.18;;;2.30;;
58091;SDS011;43896;48.178;11.578;2022-08-21T10:21:10;3.63;;;2.30;;
58091;SDS011;43896;48.178;11.578;2022-08-21T10:24:05;3.85;;;2.45;;
58091;SDS011;43896;48.178;11.578;2022-08-21T10:37:14;3.60;;;2.47;;
58091;SDS011;43896;48.178;11.578;2022-08-21T10:48:47;4.40;;;2.47;;
58091;SDS011;43896;48.178;11.578;2022-08-21T10:51:17;4.07;;;2.40;;
58091;SDS011;43896;48.178;11.578;2022-08-21T10:53:59;4.40;;;2.40;;
58091;SDS011;43896;48.178;11.578;2022-08-21T10:56:29;4.20;;;2.47;;
58091;SDS011;43896;48.178;11.578;2022-08-21T11:02:13;3.65;;;1.98;;
58091;SDS011;43896;48.178;11.578;2022-08-21T11:07:26;3.47;;;2.03;;
58091;SDS011;43896;48.178;11.578;2022-08-21T11:10:35;4.57;;;2.20;;
58091;SDS011;43896;48.178;11.578;2022-08-21T11:13:24;4.15;;;2.75;;
58091;SDS011;43896;48.178;11.578;2022-08-21T11:22:02;3.80;;;2.10;;
58091;SDS011;43896;48.178;11.578;2022-08-21T11:24:30;3.38;;;2.17;;
58091;SDS011;43896;48.178;11.578;2022-08-21T11:29:28;4.82;;;2.13;;
58091;SDS011;43896;48.178;11.578;2022-08-21T11:37:13;6.47;;;2.10;;
58091;SDS011;43896;48.178;11.578;2022-08-21T11:39:51;3.08;;;1.90;;
58091;SDS011;43896;48.178;11.578;2022-08-21T11:42:39;4.32;;;2.00;;
58091;SDS011;43896;48.178;11.578;2022-08-21T11:51:03;6.32;;;1.90;;
58091;SDS011;43896;48.178;11.578;2022-08-21T11:56:27;4.35;;;2.20;;
58091;SDS011;43896;48.178;11.578;2022-08-21T11:59:01;4.53;;;2.03;;
58091;SDS011;43896;48.178;11.578;2022-08-21T12:01:33;4.88;;;2.08;;
58091;SDS011;43896;48.178;11.578;2022-08-21T12:04:49;4.20;;;1.85;;
58091;SDS011;43896;48.178;11.578;2022-08-21T12:06:53;5.40;;;2.03;;
58091;SDS011;43896;48.178;11.578;2022-08-21T12:14:41;3.28;;;1.92;;
58091;SDS011;43896;48.178;11.578;2022-08-21T12:17:16;3.95;;;2.13;;
58091;SDS011;43896;48.178;11.578;2022-08-21T12:19:56;3.45;;;2.00;;
58091;SDS011;43896;48.178;11.578;2022-08-21T12:22:39;3.33;;;1.90;;
58091;SDS011;43896;48.178;11.578;2022-08-21T12:25:07;3.97;;;2.38;;
58091;SDS011;43896;48.178;11.578;2022-08-21T12:30:35;3.63;;;1.90;;
58091;SDS011;43896;48.178;11.578;2022-08-21T12:33:04;3.75;;;2.17;;
58091;SDS011;43896;48.178;11.578;2022-08-21T12:35:49;4.43;;;2.15;;
58091;SDS011;43896;48.178;11.578;2022-08-21T12:38:50;4.00;;;2.00;;
58091;SDS011;43896;48.178;11.578;2022-08-21T12:41:20;3.70;;;2.10;;
58091;SDS011;43896;48.178;11.578;2022-08-21T12:44:10;3.20;;;1.95;;
58091;SDS011;43896;48.178;11.578;2022-08-21T12:46:43;3.47;;;2.10;;
58091;SDS011;43896;48.178;11.578;2022-08-21T12:49:59;2.90;;;1.70;;
58091;SDS011;43896;48.178;11.578;2022-08-21T12:54:32;3.45;;;2.00;;
58091;SDS011;43896;48.178;11.578;2022-08-21T12:57:04;3.53;;;2.00;;
58091;SDS011;43896;48.178;11.578;2022-08-21T12:59:32;3.35;;;2.03;;
58091;SDS011;43896;48.178;11.578;2022-08-21T13:02:02;4.55;;;1.90;;
58091;SDS011;43896;48.178;11.578;2022-08-21T13:04:36;3.60;;;1.80;;
58091;SDS011;43896;48.178;11.578;2022-08-21T13:07:09;3.45;;;1.95;;
58091;SDS011;43896;48.178;11.578;2022-08-21T13:09:43;7.57;;;2.40;;
58091;SDS011;43896;48.178;11.578;2022-08-21T13:12:12;4.35;;;2.10;;
58091;SDS011;43896;48.178;11.578;2022-08-21T13:14:41;3.50;;;1.80;;
58091;SDS011;43896;48.178;11.578;2022-08-21T13:17:09;4.40;;;1.90;;
58091;SDS011;43896;48.178;11.578;2022-08-21T13:19:36;6.20;;;2.08;;
58091;SDS011;43896;48.178;11.578;2022-08-21T13:22:02;3.22;;;1.98;;
58091;SDS011;43896;48.178;11.578;2022-08-21T13:24:34;3.65;;;1.98;;
58091;SDS011;43896;48.178;11.578;2022-08-21T13:27:02;4.13;;;1.80;;
58091;SDS011;43896;48.178;11.578;2022-08-21T13:29:32;3.47;;;1.70;;
58091;SDS011;43896;48.178;11.578;2022-08-21T13:32:02;4.38;;;1.80;;
58091;SDS011;43896;48.178;11.578;2022-08-21T13:34:36;3.53;;;1.85;;
58091;SDS011;43896;48.178;11.578;2022-08-21T13:37:03;3.25;;;1.95;;
58091;SDS011;43896;48.178;11.578;2022-08-21T13:39:30;3.50;;;1.85;;
58091;SDS011;43896;48.178;11.578;2022-08-21T13:41:58;3.42;;;2.15;;
58091;SDS011;43896;48.178;11.578;2022-08-21T13:44:42;3.87;;;1.97;;
58091;SDS011;43896;48.178;11.578;2022-08-21T13:47:10;3.90;;;2.00;;
58091;SDS011;43896;48.178;11.578;2022-08-21T13:49:40;4.53;;;2.13;;
58091;SDS011;43896;48.178;11.578;2022-08-21T13:52:44;4.20;;;2.15;;
58091;SDS011;43896;48.178;11.578;2022-08-21T13:55:12;3.78;;;2.10;;
58091;SDS011;43896;48.178;11.578;2022-08-21T13:57:40;3.67;;;1.90;;
58091;SDS011;43896;48.178;11.578;2022-08-21T14:02:48;4.05;;;1.90;;
58091;SDS011;43896;48.178;11.578;2022-08-21T14:05:20;3.75;;;2.00;;
58091;SDS011;43896;48.178;11.578;2022-08-21T14:07:50;3.88;;;2.25;;
58091;SDS011;43896;48.178;11.578;2022-08-21T14:10:21;3.53;;;1.90;;
58091;SDS011;43896;48.178;11.578;2022-08-21T14:12:51;4.53;;;1.90;;
58091;SDS011;43896;48.178;11.578;2022-08-21T14:15:24;3.03;;;1.92;;
58091;SDS011;43896;48.178;11.578;2022-08-21T14:17:53;4.13;;;2.15;;
58091;SDS011;43896;48.178;11.578;2022-08-21T14:20:33;3.30;;;2.00;;
58091;SDS011;43896;48.178;11.578;2022-08-21T14:25:31;4.00;;;2.08;;
58091;SDS011;43896;48.178;11.578;2022-08-21T14:28:09;2.55;;;1.60;;
58091;SDS011;43896;48.178;11.578;2022-08-21T14:30:37;2.95;;;1.70;;
58091;SDS011;43896;48.178;11.578;2022-08-21T14:33:08;3.33;;;1.90;;
58091;SDS011;43896;48.178;11.578;2022-08-21T14:35:35;3.88;;;2.00;;
58091;SDS011;43896;48.178;11.578;2022-08-21T14:38:01;3.08;;;1.90;;
58091;SDS011;43896;48.178;11.578;2022-08-21T14:40:26;3.22;;;2.10;;
58091;SDS011;43896;48.178;11.578;2022-08-21T14:42:52;3.97;;;1.85;;
58091;SDS011;43896;48.178;11.578;2022-08-21T14:45:20;3.67;;;2.00;;
58091;SDS011;43896;48.178;11.578;2022-08-21T14:47:54;3.60;;;2.10;;
58091;SDS011;43896;48.178;11.578;2022-08-21T14:50:20;3.78;;;1.90;;
58091;SDS011;43896;48.178;11.578;2022-08-21T14:52:46;5.43;;;2.05;;
58091;SDS011;43896;48.178;11.578;2022-08-21T14:55:12;3.92;;;2.00;;
58091;SDS011;43896;48.178;11.578;2022-08-21T14:57:39;4.35;;;2.33;;
58091;SDS011;43896;48.178;11.578;2022-08-21T15:00:10;4.53;;;2.00;;
58091;SDS011;43896;48.178;11.578;2022-08-21T15:02:37;4.10;;;2.10;;
58091;SDS011;43896;48.178;11.578;2022-08-21T15:05:03;4.43;;;2.33;;
58091;SDS011;43896;48.178;11.578;2022-08-21T15:07:28;3.53;;;2.08;;
58091;SDS011;43896;48.178;11.578;2022-08-21T15:09:54;4.85;;;2.30;;
58091;SDS011;43896;48.178;11.578;2022-08-21T15:12:19;3.95;;;2.13;;
58091;SDS011;43896;48.178;11.578;2022-08-21T15:14:44;5.18;;;2.28;;
58091;SDS011;43896;48.178;11.578;2022-08-21T15:17:10;5.30;;;2.47;;
58091;SDS011;43896;48.178;11.578;2022-08-21T15:19:37;4.97;;;2.50;;
58091;SDS011;43896;48.178;11.578;2022-08-21T15:22:03;4.72;;;2.40;;
58091;SDS011;43896;48.178;11.578;2022-08-21T15:24:29;4.03;;;2.30;;
58091;SDS011;43896;48.178;11.578;2022-08-21T15:26:55;3.92;;;2.30;;
58091;SDS011;43896;48.178;11.578;2022-08-21T15:29:21;5.53;;;2.40;;
58091;SDS011;43896;48.178;11.578;2022-08-21T15:31:51;4.82;;;2.70;;
58091;SDS011;43896;48.178;11.578;2022-08-21T15:34:25;4.40;;;2.50;;
58091;SDS011;43896;48.178;11.578;2022-08-21T15:36:53;4.55;;;2.53;;
58091;SDS011;43896;48.178;11.578;2022-08-21T15:39:19;5.57;;;2.30;;
58091;SDS011;43896;48.178;11.578;2022-08-21T15:41:44;4.88;;;2.40;;
58091;SDS011;43896;48.178;11.578;2022-08-21T15:44:11;3.92;;;2.20;;
58091;SDS011;43896;48.178;11.578;2022-08-21T15:46:38;4.93;;;1.98;;
58091;SDS011;43896;48.178;11.578;2022-08-21T15:49:04;5.32;;;2.30;;
58091;SDS011;43896;48.178;11.578;2022-08-21T15:51:30;4.40;;;2.20;;
58091;SDS011;43896;48.178;11.578;2022-08-21T15:53:55;5.20;;;2.35;;
58091;SDS011;43896;48.178;11.578;2022-08-21T15:56:22;4.63;;;2.25;;
58091;SDS011;43896;48.178;11.578;2022-08-21T15:58:50;4.13;;;2.35;;
58091;SDS011;43896;48.178;11.578;2022-08-21T16:01:17;4.20;;;2.20;;
58091;SDS011;43896;48.178;11.578;2022-08-21T16:03:44;3.75;;;2.13;;
58091;SDS011;43896;48.178;11.578;2022-08-21T16:06:13;4.38;;;1.92;;
58091;SDS011;43896;48.178;11.578;2022-08-21T16:08:38;4.00;;;2.30;;
58091;SDS011;43896;48.178;11.578;2022-08-21T16:11:04;4.15;;;2.05;;
58091;SDS011;43896;48.178;11.578;2022-08-21T16:13:31;4.07;;;2.35;;
58091;SDS011;43896;48.178;11.578;2022-08-21T16:16:04;5.03;;;2.10;;
58091;SDS011;43896;48.178;11.578;2022-08-21T16:18:30;3.78;;;2.20;;
58091;SDS011;43896;48.178;11.578;2022-08-21T16:20:56;4.28;;;2.40;;
58091;SDS011;43896;48.178;11.578;2022-08-21T16:23:21;4.47;;;2.60;;
58091;SDS011;43896;48.178;11.578;2022-08-21T16:25:47;4.07;;;2.50;;
58091;SDS011;43896;48.178;11.578;2022-08-21T16:28:14;5.82;;;2.90;;
58091;SDS011;43896;48.178;11.578;2022-08-21T16:30:46;4.72;;;2.63;;
58091;SDS011;43896;48.178;11.578;2022-08-21T16:33:19;4.53;;;2.40;;
58091;SDS011;43896;48.178;11.578;2022-08-21T16:35:47;4.65;;;2.65;;
58091;SDS011;43896;48.178;11.578;2022-08-21T16:38:12;7.13;;;2.53;;
58091;SDS011;43896;48.178;11.578;2022-08-21T16:40:38;4.65;;;2.30;;
58091;SDS011;43896;48.178;11.578;2022-08-21T16:43:03;4.80;;;2.50;;
58091;SDS011;43896;48.178;11.578;2022-08-21T16:45:28;4.43;;;2.40;;
58091;SDS011;43896;48.178;11.578;2022-08-21T16:47:54;5.07;;;2.58;;
58091;SDS011;43896;48.178;11.578;2022-08-21T16:50:20;4.70;;;2.63;;
58091;SDS011;43896;48.178;11.578;2022-08-21T16:52:48;5.35;;;2.65;;
58091;SDS011;43896;48.178;11.578;2022-08-21T16:55:14;4.97;;;2.60;;
58091;SDS011;43896;48.178;11.578;2022-08-21T16:57:39;4.25;;;2.42;;
58091;SDS011;43896;48.178;11.578;2022-08-21T17:00:05;4.43;;;2.33;;
58091;SDS011;43896;48.178;11.578;2022-08-21T17:02:36;5.47;;;2.50;;
58091;SDS011;43896;48.178;11.578;2022-08-21T17:05:03;3.72;;;2.25;;
58091;SDS011;43896;48.178;11.578;2022-08-21T17:07:30;4.97;;;2.55;;
58091;SDS011;43896;48.178;11.578;2022-08-21T17:09:56;5.28;;;2.50;;
58091;SDS011;43896;48.178;11.578;2022-08-21T17:12:21;4.35;;;2.47;;
58091;SDS011;43896;48.178;11.578;2022-08-21T17:14:47;4.57;;;2.53;;